Time;durP1;ratioP1;P1;durP2;ratioP2;P2;SDS_P1;SDS_P2;PMS_P1;PMS_P2;Temp;Humidity;BMP_temperature;BMP_pressure;BME280_temperature;BME280_humidity;BME280_pressure;Samples;Min_cycle;Max_cycle;Signal;HPM_P1;HPM_P2
2021/01/23 00:00:08;;;;;;;21.57;14.60;;;;;;;1.57;84.14;97049.25;1731992;82;21149;-64
2021/01/23 00:02:40;;;;;;;25.85;15.38;;;;;;;1.60;83.96;97038.78;1732094;82;21546;-65
2021/01/23 00:05:10;;;;;;;21.35;12.15;;;;;;;1.63;83.95;97034.75;1732015;83;21153;-64
2021/01/23 00:07:38;;;;;;;22.05;13.70;;;;;;;1.62;83.89;97031.38;1732366;82;21173;-65
2021/01/23 00:10:13;;;;;;;20.27;12.75;;;;;;;1.59;83.60;97034.62;1732388;83;21182;-64
2021/01/23 00:12:42;;;;;;;22.87;16.37;;;;;;;1.55;83.26;97035.77;1732241;82;21237;-65
2021/01/23 00:15:12;;;;;;;27.05;16.42;;;;;;;1.59;83.29;97028.22;1732076;82;21177;-66
2021/01/23 00:17:40;;;;;;;25.05;16.95;;;;;;;1.53;83.35;97025.62;1732024;82;21149;-64
2021/01/23 00:20:31;;;;;;;22.80;15.98;;;;;;;1.47;83.42;97023.98;1731925;82;21610;-66
2021/01/23 00:22:59;;;;;;;22.82;14.65;;;;;;;1.46;83.20;97019.78;1708013;83;21163;-65
2021/01/23 00:25:27;;;;;;;26.55;17.10;;;;;;;1.42;83.38;97014.89;1708132;83;21178;-65
2021/01/23 00:27:56;;;;;;;24.47;16.35;;;;;;;1.32;83.75;97015.17;1708109;84;21147;-66
2021/01/23 00:30:24;;;;;;;25.50;15.93;;;;;;;1.31;83.61;97019.13;1708171;83;21170;-65
2021/01/23 00:32:52;;;;;;;30.72;17.57;;;;;;;1.36;83.61;97016.59;1708163;84;21211;-65
2021/01/23 00:35:21;;;;;;;30.72;17.20;;;;;;;1.28;84.59;97012.96;1708027;84;21194;-65
2021/01/23 00:37:49;;;;;;;38.10;18.70;;;;;;;1.28;84.25;97015.06;1708283;84;21178;-65
2021/01/23 00:40:18;;;;;;;33.13;16.30;;;;;;;1.24;84.58;97013.65;1708276;84;21207;-65
2021/01/23 00:42:47;;;;;;;36.17;18.65;;;;;;;1.27;84.21;96998.53;1708502;84;21166;-65
2021/01/23 00:45:15;;;;;;;36.48;17.75;;;;;;;1.29;84.24;96989.81;1708229;84;21600;-63
2021/01/23 00:47:43;;;;;;;34.53;19.00;;;;;;;1.16;84.59;96986.98;1708169;84;21582;-66
2021/01/23 00:50:33;;;;;;;30.60;19.17;;;;;;;1.06;85.26;96982.95;1708286;84;21242;-66
2021/01/23 00:53:03;;;;;;;37.42;18.32;;;;;;;1.09;84.80;96987.06;1720224;83;21215;-66
2021/01/23 00:55:32;;;;;;;27.30;15.23;;;;;;;1.06;85.39;96997.48;1720163;83;21647;-66
2021/01/23 00:58:00;;;;;;;37.15;15.83;;;;;;;1.03;84.98;96998.98;1720011;83;21182;-66
2021/01/23 01:00:28;;;;;;;25.75;15.18;;;;;;;1.05;88.76;97003.05;1720082;83;21321;-66
2021/01/23 01:02:56;;;;;;;19.80;12.70;;;;;;;1.14;88.95;96998.58;1720296;83;21144;-66
2021/01/23 01:05:26;;;;;;;21.23;12.63;;;;;;;1.21;88.88;96995.94;1718721;83;21286;-65
2021/01/23 01:07:55;;;;;;;22.25;11.70;;;;;;;1.27;88.15;96997.25;1720135;83;21305;-65
2021/01/23 01:10:23;;;;;;;26.87;16.82;;;;;;;1.30;87.17;96995.30;1720096;83;21234;-63
2021/01/23 01:12:51;;;;;;;32.67;18.52;;;;;;;1.32;86.63;96983.20;1720225;83;21162;-64
2021/01/23 01:15:19;;;;;;;24.63;15.60;;;;;;;1.30;85.94;96981.23;1720273;83;21179;-64
2021/01/23 01:17:47;;;;;;;31.07;17.15;;;;;;;1.25;85.79;96982.01;1720068;83;21186;-64
2021/01/23 01:20:15;;;;;;;28.00;15.65;;;;;;;1.23;85.67;96990.73;1720129;83;21306;-64
2021/01/23 01:22:44;;;;;;;35.10;17.75;;;;;;;1.12;87.01;96988.94;1720065;82;21214;-66
2021/01/23 01:25:12;;;;;;;21.77;13.90;;;;;;;1.11;89.13;96994.14;1719948;83;21181;-66
2021/01/23 01:27:40;;;;;;;17.30;11.78;;;;;;;1.17;89.03;96984.75;1720068;83;21175;-66
2021/01/23 01:32:51;;;;;;;22.35;13.32;;;;;;;1.26;87.52;96980.27;1723666;82;21214;-65
2021/01/23 01:35:19;;;;;;;15.23;10.80;;;;;;;1.28;87.02;96976.70;1723659;82;21251;-65
2021/01/23 01:37:47;;;;;;;15.98;11.30;;;;;;;1.32;86.81;96971.69;1723767;82;21223;-65
2021/01/23 01:40:37;;;;;;;27.37;16.17;;;;;;;1.35;86.64;96967.66;1723765;82;21680;-65
2021/01/23 01:43:05;;;;;;;22.13;13.13;;;;;;;1.37;86.15;96973.46;1694778;83;21223;-67
2021/01/23 01:45:33;;;;;;;26.30;15.30;;;;;;;1.31;85.84;96974.38;1694823;83;21215;-65
2021/01/23 01:48:02;;;;;;;24.47;15.72;;;;;;;1.31;85.73;96974.38;1694862;83;21191;-64
2021/01/23 01:50:31;;;;;;;25.82;13.85;;;;;;;1.25;85.86;96953.05;1694969;83;21203;-64
2021/01/23 01:53:00;;;;;;;28.85;15.48;;;;;;;1.41;85.89;96969.76;1695094;83;21143;-66
2021/01/23 01:55:34;;;;;;;20.55;13.20;;;;;;;1.48;85.94;96962.94;1694738;83;21190;-66
2021/01/23 01:58:03;;;;;;;32.23;17.73;;;;;;;1.55;85.86;96964.94;1694780;83;21175;-65
2021/01/23 02:00:32;;;;;;;23.92;15.15;;;;;;;1.56;84.94;96956.31;1694835;83;21633;-65
2021/01/23 02:03:26;;;;;;;27.10;15.60;;;;;;;1.56;84.89;96956.31;1694897;83;21219;-65
2021/01/23 02:06:20;;;;;;;28.77;18.98;;;;;;;1.54;84.03;96959.92;1645759;83;21176;-64
2021/01/23 02:08:57;;;;;;;21.02;15.53;;;;;;;1.44;83.90;96955.45;1655125;87;21469;-63
2021/01/23 02:12:09;;;;;;;31.60;15.93;;;;;;;1.40;84.13;96950.22;1655066;85;21175;-63
2021/01/23 02:14:57;;;;;;;32.98;17.92;;;;;;;1.31;84.21;96953.45;1655382;85;21533;-63
2021/01/23 02:17:37;;;;;;;29.37;18.45;;;;;;;1.25;84.04;96951.31;1655000;85;21285;-65
2021/01/23 02:20:37;;;;;;;27.45;18.00;;;;;;;1.18;84.32;96948.03;1655209;86;21242;-66
2021/01/23 02:23:19;;;;;;;27.17;14.50;;;;;;;1.02;84.93;96947.03;1655187;85;21179;-66
2021/01/23 02:26:43;;;;;;;25.50;14.63;;;;;;;1.01;85.04;96945.42;1655104;85;21148;-64
2021/01/23 02:29:43;;;;;;;24.32;14.28;;;;;;;0.95;85.26;96932.59;1819140;79;23342;-66
2021/01/23 02:32:13;;;;;;;21.68;13.58;;;;;;;0.93;85.19;96941.31;1670215;85;21164;-65
2021/01/23 02:34:43;;;;;;;18.20;11.45;;;;;;;0.89;85.34;96941.17;1670091;86;21180;-65
2021/01/23 02:37:13;;;;;;;15.83;10.80;;;;;;;0.88;86.34;96942.91;1670049;86;21212;-66
2021/01/23 02:39:42;;;;;;;20.32;13.05;;;;;;;0.88;85.84;96942.09;1670167;86;21197;-66
2021/01/23 02:42:10;;;;;;;21.82;9.98;;;;;;;0.80;86.47;96941.34;1670009;85;21589;-63
2021/01/23 02:44:38;;;;;;;18.90;9.78;;;;;;;0.88;87.37;96945.46;1670314;86;21550;-69
2021/01/23 02:47:06;;;;;;;15.48;8.68;;;;;;;0.93;86.73;96942.59;1670695;85;21136;-65
2021/01/23 02:49:35;;;;;;;13.05;7.67;;;;;;;0.98;86.40;96944.79;1670427;86;21179;-66
2021/01/23 02:52:08;;;;;;;12.50;7.85;;;;;;;1.00;87.73;96947.61;1670295;85;21557;-64
2021/01/23 02:54:50;;;;;;;13.25;9.08;;;;;;;1.04;86.99;96949.48;1670255;86;21182;-63
2021/01/23 02:57:21;;;;;;;14.30;8.95;;;;;;;1.06;87.40;96951.00;1670073;86;21193;-64
2021/01/23 02:59:53;;;;;;;11.85;6.80;;;;;;;1.02;87.65;96950.05;1669900;86;21180;-66
2021/01/23 03:02:24;;;;;;;9.25;5.95;;;;;;;1.07;86.64;96944.97;1670269;86;21188;-65
2021/01/23 03:04:56;;;;;;;14.43;8.28;;;;;;;1.11;86.86;96938.72;1669911;86;21224;-65
2021/01/23 03:07:24;;;;;;;9.93;7.62;;;;;;;1.14;87.77;96947.90;1669942;86;21188;-63
2021/01/23 03:09:53;;;;;;;9.05;5.75;;;;;;;1.17;87.08;96944.66;1670075;86;21160;-63
2021/01/23 03:12:21;;;;;;;11.60;7.30;;;;;;;1.20;86.67;96937.25;1670036;86;21171;-63
2021/01/23 03:14:49;;;;;;;8.18;5.65;;;;;;;1.20;86.65;96936.79;1669895;86;21196;-62
2021/01/23 03:17:17;;;;;;;9.40;6.10;;;;;;;1.23;86.24;96933.19;1669969;86;21168;-62
2021/01/23 03:19:45;;;;;;;7.00;5.55;;;;;;;1.27;86.28;96932.04;1670084;86;21175;-63
2021/01/23 03:22:14;;;;;;;8.15;6.12;;;;;;;1.31;86.29;96924.50;1670131;86;21184;-63
2021/01/23 03:24:42;;;;;;;14.93;7.08;;;;;;;1.34;86.11;96919.16;1670295;86;21140;-68
2021/01/23 03:27:11;;;;;;;6.83;5.25;;;;;;;1.35;86.04;96913.94;1670363;86;21167;-67
2021/01/23 03:29:40;;;;;;;10.05;5.92;;;;;;;1.36;86.44;96923.22;1670526;86;21144;-63
2021/01/23 03:32:09;;;;;;;8.10;4.90;;;;;;;1.38;86.19;96923.13;1665601;84;21180;-63
2021/01/23 03:34:37;;;;;;;11.68;7.03;;;;;;;1.39;86.11;96923.02;1665384;86;21200;-64
2021/01/23 03:37:05;;;;;;;8.03;4.72;;;;;;;1.39;86.41;96922.20;1665746;85;21151;-65
2021/01/23 03:39:34;;;;;;;12.07;6.20;;;;;;;1.40;86.00;96922.08;1664801;86;21168;-63
2021/01/23 03:42:03;;;;;;;6.05;4.33;;;;;;;1.40;85.82;96920.01;1664450;86;21137;-63
2021/01/23 03:44:31;;;;;;;11.30;6.25;;;;;;;1.40;86.29;96928.95;1664535;85;21656;-63
2021/01/23 03:46:59;;;;;;;7.92;4.92;;;;;;;1.39;85.80;96921.75;1664774;86;21564;-63
2021/01/23 03:49:27;;;;;;;7.50;4.17;;;;;;;1.39;86.47;96911.97;1664830;86;21255;-64
2021/01/23 03:51:55;;;;;;;5.78;3.85;;;;;;;1.38;85.96;96914.98;1664858;86;21204;-65
2021/01/23 03:54:23;;;;;;;6.92;4.10;;;;;;;1.39;86.55;96909.41;1665152;86;21251;-68
2021/01/23 03:56:52;;;;;;;7.62;4.50;;;;;;;1.41;86.47;96901.97;1665129;86;21196;-65
2021/01/23 03:59:21;;;;;;;5.90;3.87;;;;;;;1.44;86.24;96904.76;1664770;86;21207;-63
2021/01/23 04:01:49;;;;;;;9.83;5.20;;;;;;;1.48;86.56;96903.60;1664979;86;21620;-69
2021/01/23 04:04:18;;;;;;;6.05;3.80;;;;;;;1.51;85.97;96902.12;1665048;86;21184;-64
2021/01/23 04:06:46;;;;;;;5.28;3.80;;;;;;;1.54;86.06;96898.05;1665148;86;21581;-63
2021/01/23 04:09:14;;;;;;;11.33;4.72;;;;;;;1.59;86.05;96892.60;1665082;86;21561;-64
2021/01/23 04:11:42;;;;;;;7.85;4.60;;;;;;;1.63;85.88;96890.17;1664874;86;21185;-65
2021/01/23 04:14:11;;;;;;;10.95;5.20;;;;;;;1.65;85.79;96889.12;1665048;86;21160;-65
2021/01/23 04:16:39;;;;;;;9.35;6.03;;;;;;;1.53;85.68;96875.95;1665115;86;21184;-63
2021/01/23 04:19:09;;;;;;;7.95;4.65;;;;;;;1.69;85.78;96890.98;1665094;85;21176;-64
2021/01/23 04:21:39;;;;;;;7.47;4.37;;;;;;;1.72;85.69;96888.19;1664882;86;21642;-65
2021/01/23 04:24:28;;;;;;;3.90;3.42;;;;;;;1.73;85.45;96891.10;1664611;86;21161;-64
2021/01/23 04:26:56;;;;;;;8.60;4.95;;;;;;;1.76;85.25;96893.42;1673272;86;21182;-64
2021/01/23 04:29:24;;;;;;;5.42;4.05;;;;;;;1.79;85.52;96887.61;1672810;86;21182;-67
2021/01/23 04:31:52;;;;;;;5.62;4.17;;;;;;;1.85;85.55;96892.75;1672697;85;21168;-63
2021/01/23 04:34:21;;;;;;;16.62;5.12;;;;;;;1.91;85.39;96890.53;1672968;84;21170;-64
2021/01/23 04:36:50;;;;;;;7.42;4.37;;;;;;;1.99;85.39;96894.26;1672654;86;21173;-65
2021/01/23 04:39:18;;;;;;;10.53;5.80;;;;;;;2.07;85.31;96895.31;1672827;84;21206;-64
2021/01/23 04:41:46;;;;;;;8.35;4.53;;;;;;;2.12;85.17;96893.23;1673271;85;21149;-65
2021/01/23 04:44:14;;;;;;;7.85;5.28;;;;;;;2.17;84.91;96887.30;1672951;84;21186;-66
2021/01/23 04:46:43;;;;;;;9.38;4.87;;;;;;;2.22;84.72;96884.36;1673356;85;21149;-67
2021/01/23 04:49:12;;;;;;;9.55;5.97;;;;;;;2.24;84.60;96884.61;1673125;84;21343;-64
2021/01/23 04:51:41;;;;;;;7.05;4.75;;;;;;;2.26;84.43;96880.17;1672782;85;21356;-64
2021/01/23 04:54:09;;;;;;;11.43;5.97;;;;;;;2.23;84.15;96882.97;1672952;84;21607;-64
2021/01/23 04:56:37;;;;;;;9.10;5.62;;;;;;;2.18;83.87;96874.81;1672966;86;21350;-64
2021/01/23 04:59:05;;;;;;;10.35;5.42;;;;;;;2.14;83.65;96873.91;1673239;84;21217;-64
2021/01/23 05:01:34;;;;;;;14.07;8.25;;;;;;;2.09;83.69;96874.27;1673052;86;21228;-64
2021/01/23 05:04:05;;;;;;;14.03;7.35;;;;;;;1.98;83.43;96880.67;1672727;84;21142;-64
2021/01/23 05:06:33;;;;;;;17.77;9.98;;;;;;;1.93;83.75;96871.69;1672577;85;21334;-64
2021/01/23 05:09:01;;;;;;;23.90;11.65;;;;;;;1.87;83.77;96871.22;1672654;84;21174;-64
2021/01/23 05:11:49;;;;;;;13.43;8.73;;;;;;;1.78;83.35;96867.27;1663806;85;21620;-64
2021/01/23 05:14:18;;;;;;;17.55;10.38;;;;;;;1.68;83.29;96861.19;1672723;86;21183;-64
2021/01/23 05:16:46;;;;;;;14.13;10.80;;;;;;;1.60;83.69;96859.67;1641946;87;21298;-64
2021/01/23 05:19:16;;;;;;;15.40;9.65;;;;;;;1.56;83.50;96862.10;1649440;87;21182;-64
2021/01/23 05:22:01;;;;;;;17.87;11.50;;;;;;;1.48;83.70;96847.81;1649477;86;21159;-64
2021/01/23 05:24:32;;;;;;;12.55;8.35;;;;;;;1.37;84.75;96845.56;1649537;87;21234;-64
2021/01/23 05:27:01;;;;;;;15.58;7.40;;;;;;;1.30;84.98;96842.30;1666976;84;21145;-64
2021/01/23 05:29:30;;;;;;;12.10;8.15;;;;;;;1.30;84.55;96841.02;1669972;84;21190;-64
2021/01/23 05:32:17;;;;;;;17.23;10.00;;;;;;;1.24;85.29;96841.02;1704104;83;21301;-64
2021/01/23 05:34:45;;;;;;;16.75;7.87;;;;;;;1.16;86.01;96839.48;1703938;83;21177;-64
2021/01/23 05:37:33;;;;;;;18.32;9.58;;;;;;;1.20;85.42;96838.34;1705591;83;21175;-64
2021/01/23 05:40:02;;;;;;;15.78;9.18;;;;;;;1.19;85.28;96834.60;1728615;81;21135;-64
2021/01/23 05:42:42;;;;;;;15.03;9.68;;;;;;;1.08;86.02;96832.84;1691193;83;21287;-64
2021/01/23 05:45:32;;;;;;;11.08;7.78;;;;;;;1.10;86.26;96825.04;1690815;84;21192;-64
2021/01/23 05:50:52;;;;;;;16.65;8.60;;;;;;;1.13;86.22;96821.79;1655175;85;21170;-64
2021/01/23 05:53:20;;;;;;;12.68;8.00;;;;;;;1.18;85.89;96820.18;1655253;85;21170;-64
2021/01/23 05:55:48;;;;;;;8.83;5.92;;;;;;;1.23;85.83;96825.78;1655409;84;21189;-64
2021/01/23 05:58:16;;;;;;;5.05;3.98;;;;;;;1.29;86.04;96822.76;1655315;85;21598;-65
2021/01/23 06:00:49;;;;;;;5.83;3.87;;;;;;;1.40;87.07;96819.75;1654869;85;21186;-64
2021/01/23 06:03:18;;;;;;;9.70;5.72;;;;;;;1.48;86.76;96820.95;1670770;84;21165;-64
2021/01/23 06:05:54;;;;;;;6.62;4.30;;;;;;;1.55;86.66;96815.72;1670989;85;21656;-64
2021/01/23 06:08:45;;;;;;;9.15;4.05;;;;;;;1.62;86.64;96823.28;1670776;84;21608;-65
2021/01/23 06:11:25;;;;;;;5.10;3.25;;;;;;;1.67;86.27;96817.36;1665112;84;21208;-64
2021/01/23 06:13:56;;;;;;;4.42;3.45;;;;;;;1.74;86.11;96819.34;1655743;84;21136;-64
2021/01/23 06:16:55;;;;;;;3.95;2.92;;;;;;;1.86;85.87;96811.19;1683261;84;21189;-64
2021/01/23 06:19:32;;;;;;;4.47;3.50;;;;;;;1.92;85.63;96811.98;1625476;88;21157;-64
2021/01/23 06:22:00;;;;;;;4.85;3.33;;;;;;;1.99;85.31;96811.86;1622213;88;21179;-64
2021/01/23 06:24:41;;;;;;;9.70;2.98;;;;;;;2.07;85.06;96817.21;1626175;88;21168;-65
2021/01/23 06:27:07;;;;;;;5.33;3.17;;;;;;;2.12;84.95;96812.56;1626259;87;21192;-64
2021/01/23 06:29:41;;;;;;;4.12;3.20;;;;;;;2.17;84.70;96811.74;1626340;87;21175;-64
2021/01/23 06:32:18;;;;;;;7.10;3.90;;;;;;;2.23;84.55;96815.56;1625494;87;21204;-64
2021/01/23 06:34:50;;;;;;;6.45;2.70;;;;;;;2.28;84.41;96809.63;1625974;87;21521;-65
2021/01/23 06:37:40;;;;;;;11.53;3.62;;;;;;;2.34;84.24;96808.67;1625782;88;21208;-64
2021/01/23 06:44:39;;;;;;;5.42;3.20;;;;;;;2.44;83.79;96811.80;1567583;91;21238;-64
2021/01/23 06:47:14;;;;;;;5.30;4.28;;;;;;;2.52;83.80;96813.29;1613410;88;21195;-64
2021/01/23 06:49:44;;;;;;;9.95;5.35;;;;;;;2.53;83.40;96805.95;1613425;88;21172;-64
2021/01/23 06:52:12;;;;;;;13.62;5.87;;;;;;;2.57;83.42;96806.85;1613246;88;21208;-64
2021/01/23 06:54:46;;;;;;;6.35;3.52;;;;;;;2.63;83.40;96810.69;1612919;88;21740;-64
2021/01/23 06:57:15;;;;;;;7.37;4.78;;;;;;;2.69;83.28;96806.34;1604526;89;21621;-64
2021/01/23 06:59:44;;;;;;;7.58;5.05;;;;;;;2.73;83.17;96806.45;1605838;89;21191;-64
2021/01/23 07:02:14;;;;;;;9.60;4.20;;;;;;;2.80;83.05;96799.92;1605862;89;21607;-64
2021/01/23 07:04:50;;;;;;;5.30;3.67;;;;;;;2.85;82.98;96802.44;1605765;89;21184;-65
2021/01/23 07:07:39;;;;;;;5.03;3.47;;;;;;;2.89;82.51;96799.16;1649951;84;21214;-65
2021/01/23 07:10:15;;;;;;;7.20;4.40;;;;;;;2.96;82.47;96797.72;1663288;86;21184;-69
2021/01/23 07:12:47;;;;;;;5.85;4.08;;;;;;;3.02;82.18;96803.66;1665527;85;21164;-64
2021/01/23 07:15:47;;;;;;;9.53;5.60;;;;;;;3.08;81.81;96803.61;1666471;86;21152;-64
2021/01/23 07:18:16;;;;;;;12.75;7.33;;;;;;;3.13;82.01;96796.36;1691254;84;21195;-64
2021/01/23 07:20:44;;;;;;;15.53;8.23;;;;;;;3.12;81.32;96796.83;1678011;85;21603;-64
2021/01/23 07:23:14;;;;;;;13.10;7.80;;;;;;;3.16;81.27;96798.20;1697288;84;21179;-64
2021/01/23 07:25:43;;;;;;;15.65;6.67;;;;;;;3.15;81.83;96797.84;1677764;85;21659;-64
2021/01/23 07:28:15;;;;;;;14.53;7.90;;;;;;;3.18;82.70;96791.67;1697188;84;21809;-65
2021/01/23 07:30:43;;;;;;;10.78;6.92;;;;;;;3.24;83.01;96790.69;1677926;85;21199;-69
2021/01/23 07:33:11;;;;;;;17.02;9.43;;;;;;;3.26;81.06;96787.55;1701945;84;21147;-69
2021/01/23 07:35:41;;;;;;;11.95;6.70;;;;;;;3.16;81.12;96779.43;1701759;83;21616;-67
2021/01/23 07:38:10;;;;;;;12.82;6.12;;;;;;;3.20;81.15;96767.52;1701849;84;21183;-68
2021/01/23 07:41:00;;;;;;;6.75;3.80;;;;;;;3.32;81.24;96759.27;1701738;83;21596;-70
2021/01/23 07:43:29;;;;;;;6.25;4.50;;;;;;;3.45;80.74;96752.19;1704080;84;21142;-68
2021/01/23 07:45:57;;;;;;;6.50;4.67;;;;;;;3.59;80.09;96747.17;1703869;84;21587;-65
2021/01/23 07:48:25;;;;;;;6.97;3.65;;;;;;;3.67;79.39;96744.30;1703874;84;21245;-64
2021/01/23 07:50:56;;;;;;;7.12;4.40;;;;;;;3.80;79.07;96753.89;1704208;84;21230;-66
2021/01/23 07:53:24;;;;;;;4.97;4.20;;;;;;;3.89;78.68;96754.05;1704066;84;21622;-64
2021/01/23 07:55:52;;;;;;;5.22;3.72;;;;;;;3.98;78.42;96757.91;1703846;84;21206;-64
2021/01/23 07:58:20;;;;;;;9.00;4.87;;;;;;;4.08;78.26;96761.34;1703690;84;21182;-64
2021/01/23 08:00:49;;;;;;;8.33;4.75;;;;;;;4.11;77.91;96760.25;1703587;84;21199;-64
2021/01/23 08:03:18;;;;;;;8.20;4.70;;;;;;;4.16;77.79;96759.39;1703514;84;21179;-65
2021/01/23 08:05:54;;;;;;;7.70;4.80;;;;;;;4.28;77.40;96751.41;1703587;84;21225;-64
2021/01/23 08:08:34;;;;;;;10.58;3.10;;;;;;;4.35;77.23;96753.47;1703790;84;21190;-64
2021/01/23 08:11:05;;;;;;;7.62;3.80;;;;;;;4.49;77.12;96739.74;1703869;84;21194;-65
2021/01/23 08:13:35;;;;;;;6.17;4.05;;;;;;;4.48;76.26;96743.72;1703701;83;21135;-64
2021/01/23 08:16:14;;;;;;;9.28;3.77;;;;;;;4.53;76.05;96747.99;1703075;84;21202;-64
2021/01/23 08:18:44;;;;;;;6.17;3.70;;;;;;;4.51;75.73;96723.72;1703484;84;21169;-64
2021/01/23 08:21:38;;;;;;;8.65;4.22;;;;;;;4.64;75.82;96750.42;1703535;84;21179;-64
2021/01/23 08:24:30;;;;;;;4.55;3.33;;;;;;;4.70;75.91;96753.76;1669911;84;21219;-63
2021/01/23 08:27:18;;;;;;;11.22;4.35;;;;;;;4.75;75.66;96759.28;1669863;85;21198;-66
2021/01/23 08:29:50;;;;;;;6.28;4.25;;;;;;;4.84;75.91;96753.80;1670157;86;21174;-63
2021/01/23 08:32:19;;;;;;;9.58;3.92;;;;;;;4.85;75.17;96752.39;1669936;85;21342;-66
2021/01/23 08:34:48;;;;;;;10.72;4.75;;;;;;;4.89;75.33;96754.22;1669973;85;21242;-65
2021/01/23 08:37:16;;;;;;;11.85;5.05;;;;;;;4.89;75.18;96758.89;1670136;85;21224;-65
2021/01/23 08:39:48;;;;;;;12.30;4.55;;;;;;;4.97;75.60;96756.92;1669412;85;21612;-65
2021/01/23 08:42:24;;;;;;;12.95;6.70;;;;;;;5.07;75.24;96756.42;1669866;85;21214;-65
2021/01/23 08:44:49;;;;;;;9.80;4.92;;;;;;;5.15;74.85;96756.55;1669934;85;21155;-65
2021/01/23 08:47:17;;;;;;;8.28;4.58;;;;;;;5.21;75.00;96754.72;1670110;84;21151;-65
2021/01/23 08:49:46;;;;;;;8.50;4.90;;;;;;;5.21;73.92;96751.64;1669962;86;21170;-65
2021/01/23 08:52:15;;;;;;;12.37;5.35;;;;;;;5.25;74.47;96748.34;1669924;85;21218;-65
2021/01/23 08:54:44;;;;;;;11.63;6.30;;;;;;;5.29;74.45;96743.26;1670286;85;21179;-64
2021/01/23 08:57:13;;;;;;;9.10;6.00;;;;;;;5.33;74.44;96745.08;1670020;85;21170;-66
2021/01/23 08:59:41;;;;;;;8.18;5.50;;;;;;;5.41;74.12;96737.47;1670045;86;21207;-65
2021/01/23 09:02:10;;;;;;;9.95;5.37;;;;;;;5.53;74.47;96731.98;1669980;86;21617;-65
2021/01/23 09:04:39;;;;;;;9.68;5.17;;;;;;;5.66;74.04;96732.95;1669857;86;21321;-66
2021/01/23 09:07:09;;;;;;;9.28;6.30;;;;;;;5.74;73.41;96731.30;1669980;85;21175;-65
2021/01/23 09:09:37;;;;;;;11.22;5.50;;;;;;;5.85;73.91;96727.70;1669816;85;21615;-65
2021/01/23 09:12:07;;;;;;;7.80;4.83;;;;;;;5.91;72.27;96723.80;1670025;85;21675;-65
2021/01/23 09:14:35;;;;;;;10.63;5.28;;;;;;;5.98;72.50;96722.25;1669958;85;21350;-69
2021/01/23 09:17:04;;;;;;;12.70;6.37;;;;;;;6.00;72.66;96709.55;1670144;84;21191;-65
2021/01/23 09:19:33;;;;;;;8.88;4.80;;;;;;;6.01;72.54;96705.21;1670087;86;21182;-65
2021/01/23 09:22:02;;;;;;;8.98;5.17;;;;;;;6.07;71.83;96700.78;1668499;84;21156;-64
2021/01/23 09:24:31;;;;;;;12.95;5.37;;;;;;;6.00;71.58;96704.39;1652716;86;21190;-65
2021/01/23 09:27:01;;;;;;;7.83;5.15;;;;;;;6.04;71.74;96695.89;1631528;88;21218;-65
2021/01/23 09:29:30;;;;;;;6.55;4.55;;;;;;;6.15;71.52;96684.90;1652596;86;21305;-64
2021/01/23 09:32:00;;;;;;;7.42;4.15;;;;;;;6.19;71.30;96691.38;1631243;88;21195;-65
2021/01/23 09:34:29;;;;;;;9.80;4.67;;;;;;;6.29;71.25;96693.91;1652674;86;21174;-65
2021/01/23 09:36:57;;;;;;;8.88;4.22;;;;;;;6.54;70.59;96697.49;1611013;87;21265;-67
2021/01/23 09:39:27;;;;;;;11.35;4.75;;;;;;;6.73;70.24;96703.00;1652388;86;21245;-65
2021/01/23 09:41:55;;;;;;;7.97;4.90;;;;;;;6.85;68.85;96698.72;1652392;86;21548;-65
2021/01/23 09:44:24;;;;;;;9.33;4.58;;;;;;;7.12;67.90;96693.89;1631247;88;21198;-64
2021/01/23 09:46:53;;;;;;;7.87;4.37;;;;;;;7.40;67.89;96694.06;1652446;86;21738;-64
2021/01/23 09:49:22;;;;;;;6.30;3.75;;;;;;;7.72;66.57;96693.41;1631169;87;21182;-65
2021/01/23 09:51:50;;;;;;;9.50;4.08;;;;;;;7.95;65.49;96681.53;1652531;86;21320;-65
2021/01/23 09:54:19;;;;;;;6.87;4.53;;;;;;;8.20;66.52;96688.88;1631438;88;21630;-65
2021/01/23 09:56:49;;;;;;;7.33;4.05;;;;;;;8.46;68.20;96680.53;1645370;87;21618;-65
2021/01/23 09:59:17;;;;;;;7.40;5.15;;;;;;;8.71;68.27;96676.66;1617837;87;21773;-65
2021/01/23 10:01:45;;;;;;;8.30;4.97;;;;;;;8.89;63.39;96678.11;1617676;87;21183;-65
2021/01/23 10:04:13;;;;;;;8.80;5.50;;;;;;;8.94;64.73;96667.27;1618163;87;21682;-65
2021/01/23 10:06:42;;;;;;;8.40;5.70;;;;;;;9.16;64.77;96665.28;1618275;87;21167;-68
2021/01/23 10:09:10;;;;;;;12.40;6.35;;;;;;;9.18;61.29;96667.72;1617911;87;21174;-65
2021/01/23 10:11:40;;;;;;;9.53;5.10;;;;;;;9.08;62.98;96663.19;1618111;87;21290;-66
2021/01/23 10:14:08;;;;;;;8.68;4.92;;;;;;;9.11;62.01;96655.89;1618569;87;21234;-68
2021/01/23 10:16:36;;;;;;;9.78;5.62;;;;;;;9.13;61.43;96660.44;1619027;87;21356;-65
2021/01/23 10:19:05;;;;;;;9.75;5.30;;;;;;;9.26;61.71;96658.63;1618490;87;21190;-65
2021/01/23 10:21:33;;;;;;;10.30;5.40;;;;;;;9.32;62.41;96652.77;1617887;87;21308;-65
2021/01/23 10:24:03;;;;;;;10.90;6.53;;;;;;;9.42;62.73;96654.67;1622262;87;21209;-65
2021/01/23 10:26:33;;;;;;;8.13;5.05;;;;;;;9.49;63.78;96647.87;1669999;84;21183;-64
2021/01/23 10:29:22;;;;;;;8.13;4.40;;;;;;;9.45;60.58;96642.70;1670223;84;21218;-65
2021/01/23 10:31:50;;;;;;;11.12;4.95;;;;;;;9.46;60.85;96645.59;1615585;88;21152;-65
2021/01/23 10:34:20;;;;;;;13.08;5.35;;;;;;;9.36;61.09;96647.09;1615743;88;21256;-65
2021/01/23 10:36:48;;;;;;;13.05;4.75;;;;;;;9.29;60.68;96634.50;1615478;88;21164;-66
2021/01/23 10:39:17;;;;;;;7.42;4.08;;;;;;;9.05;61.02;96627.59;1615694;88;21585;-65
2021/01/23 10:41:47;;;;;;;6.45;3.25;;;;;;;8.91;61.67;96628.25;1615860;88;21601;-65
2021/01/23 10:44:15;;;;;;;9.18;4.78;;;;;;;8.98;61.82;96623.25;1615639;88;21160;-65
2021/01/23 10:46:44;;;;;;;14.35;4.42;;;;;;;8.92;62.37;96627.28;1615569;88;21802;-65
2021/01/23 10:49:13;;;;;;;11.53;5.87;;;;;;;8.93;61.49;96622.44;1615756;88;21227;-65
2021/01/23 10:51:41;;;;;;;14.05;5.72;;;;;;;8.97;61.75;96620.33;1615900;88;21219;-64
2021/01/23 10:54:10;;;;;;;11.28;5.22;;;;;;;8.96;61.65;96627.28;1615844;88;21192;-65
2021/01/23 10:56:38;;;;;;;9.53;4.85;;;;;;;8.91;62.09;96619.70;1615611;88;21176;-65
2021/01/23 10:59:28;;;;;;;5.22;3.80;;;;;;;8.94;61.73;96614.19;1615757;88;21640;-65
2021/01/23 11:01:56;;;;;;;6.65;3.37;;;;;;;8.95;61.90;96609.31;1616594;88;21193;-65
2021/01/23 11:04:25;;;;;;;7.53;3.67;;;;;;;8.93;62.21;96612.56;1616916;89;21155;-65
2021/01/23 11:06:53;;;;;;;6.45;3.02;;;;;;;8.91;62.42;96621.00;1616666;88;21223;-65
2021/01/23 11:09:22;;;;;;;5.03;3.12;;;;;;;8.92;61.84;96613.05;1616928;88;21263;-65
2021/01/23 11:11:50;;;;;;;4.25;3.20;;;;;;;8.91;61.86;96620.48;1617304;89;21670;-66
2021/01/23 11:14:18;;;;;;;6.45;3.75;;;;;;;8.86;62.16;96619.38;1616606;89;21168;-65
2021/01/23 11:16:48;;;;;;;4.85;3.12;;;;;;;8.81;62.64;96619.05;1616673;88;21208;-65
2021/01/23 11:19:17;;;;;;;4.62;3.27;;;;;;;8.93;62.14;96609.49;1616714;88;21154;-66
2021/01/23 11:21:45;;;;;;;6.03;3.83;;;;;;;8.90;62.09;96609.83;1616786;89;21208;-64
2021/01/23 11:24:15;;;;;;;6.35;4.10;;;;;;;8.88;62.23;96604.48;1616854;89;21199;-65
2021/01/23 11:26:44;;;;;;;6.65;3.40;;;;;;;8.79;62.53;96599.83;1616706;89;21215;-65
2021/01/23 11:29:13;;;;;;;4.85;3.37;;;;;;;8.90;62.25;96603.36;1616473;88;21151;-65
2021/01/23 11:31:41;;;;;;;5.25;2.90;;;;;;;8.93;61.45;96602.20;1616752;89;21178;-65
2021/01/23 11:34:09;;;;;;;4.75;2.83;;;;;;;8.86;61.48;96605.95;1616509;89;21602;-65
2021/01/23 11:36:38;;;;;;;5.12;3.50;;;;;;;8.92;61.74;96605.28;1616510;88;21622;-65
2021/01/23 11:39:06;;;;;;;12.33;3.83;;;;;;;8.88;61.92;96603.18;1616531;89;21202;-64
2021/01/23 11:41:34;;;;;;;9.30;3.50;;;;;;;8.85;62.26;96606.92;1616682;89;21158;-65
2021/01/23 11:44:03;;;;;;;5.85;3.45;;;;;;;8.86;61.97;96602.55;1617016;89;21235;-66
2021/01/23 11:46:32;;;;;;;9.35;3.95;;;;;;;8.78;61.77;96600.79;1616814;89;21198;-64
2021/01/23 11:49:03;;;;;;;5.25;2.98;;;;;;;8.65;62.14;96597.08;1616517;89;21158;-65
2021/01/23 11:51:34;;;;;;;11.22;3.90;;;;;;;8.62;62.04;96589.16;1616807;88;21197;-65
2021/01/23 11:54:24;;;;;;;7.90;3.70;;;;;;;8.62;62.37;96590.45;1593716;89;21262;-66
2021/01/23 11:56:52;;;;;;;5.83;3.50;;;;;;;8.48;62.68;96595.01;1631776;87;21223;-65
2021/01/23 11:59:22;;;;;;;8.35;3.90;;;;;;;8.67;62.23;96584.80;1693682;84;21136;-64
2021/01/23 12:01:50;;;;;;;7.70;3.72;;;;;;;8.62;62.27;96586.58;1693461;85;21572;-64
2021/01/23 12:04:19;;;;;;;8.45;4.53;;;;;;;8.80;62.22;96583.78;1693543;85;21132;-64
2021/01/23 12:06:48;;;;;;;4.72;3.10;;;;;;;8.61;62.54;96584.14;1693704;85;21151;-64